KFPR/FPR METAR and TAF weather

Enter ICAO airport designator
Station Type Date Time Source
KFPR METAR 2021/08/04 18:53 UTC NOAA

KFPR 041853Z 22007KT 10SM -RA FEW034 BKN040 OVC050 25/23 A3005 RMK AO2 SLP176 P0001 T02500228


Station Type Date Time Source
KFPR Decoded METAR 2021/08/04 18:53 UTC NOAA

FORT PIERCE ST LUCIE, FL, United States (KFPR) 27-30N 080-23W 13M
Aug 04, 2021 - 02:53 PM EDT / 2021.08.04 1853 UTC
Wind: from the SW (220 degrees) at 8 MPH (7 KT):0
Visibility: 10 mile(s):0
Sky conditions: overcast
Weather: light rain
Precipitation last hour: 0.01 inches
Temperature: 77.0 F (25.0 C)
Dew Point: 73.0 F (22.8 C)
Relative Humidity: 87%
Pressure (altimeter): 30.05 in. Hg (1017 hPa)
ob: KFPR 041853Z 22007KT 10SM -RA FEW034 BKN040 OVC050 25/23 A3005 RMK AO2 SLP176 P0001 T02500228
cycle: 19

Station Type Date Time Source
KFPR TAF 2021/08/04 19:48 UTC NOAA

TAF
AMD KFPR 041846Z 0419/0518 22006KT P6SM VCSH FEW090 BKN120
FM042000 20008KT P6SM VCSH SCT060 BKN160 BKN250
FM050300 19006KT P6SM FEW020 SCT120 BKN250
FM051500 18009KT P6SM VCSH SCT035 SCT100 BKN250

Example: see airport list